sensor_id;sensor_type;location;lat;lon;timestamp;pressure;altitude;pressure_sealevel;temperature;humidity
45813;BME280;31519;45.408;10.962;2023-08-07T00:02:25;100059.22;;;23.04;59.35
45813;BME280;31519;45.408;10.962;2023-08-07T00:04:53;100060.63;;;23.19;58.89
45813;BME280;31519;45.408;10.962;2023-08-07T00:07:21;100060.31;;;23.14;59.13
45813;BME280;31519;45.408;10.962;2023-08-07T00:09:52;100066.53;;;23.11;59.37
45813;BME280;31519;45.408;10.962;2023-08-07T00:12:19;100064.63;;;23.04;59.86
45813;BME280;31519;45.408;10.962;2023-08-07T00:14:49;100073.97;;;23.00;59.83
45813;BME280;31519;45.408;10.962;2023-08-07T00:17:18;100068.63;;;22.85;60.50
45813;BME280;31519;45.408;10.962;2023-08-07T00:19:46;100071.66;;;22.98;60.34
45813;BME280;31519;45.408;10.962;2023-08-07T00:22:13;100077.13;;;22.87;60.80
45813;BME280;31519;45.408;10.962;2023-08-07T00:24:41;100081.09;;;22.76;61.16
45813;BME280;31519;45.408;10.962;2023-08-07T00:27:09;100096.63;;;22.75;61.37
45813;BME280;31519;45.408;10.962;2023-08-07T00:29:40;100091.91;;;22.83;61.31
45813;BME280;31519;45.408;10.962;2023-08-07T00:32:08;100096.97;;;22.81;61.54
45813;BME280;31519;45.408;10.962;2023-08-07T00:34:36;100090.00;;;22.69;62.34
45813;BME280;31519;45.408;10.962;2023-08-07T00:37:04;100097.00;;;22.67;62.34
45813;BME280;31519;45.408;10.962;2023-08-07T00:39:34;100089.97;;;22.83;61.77
45813;BME280;31519;45.408;10.962;2023-08-07T00:42:01;100090.34;;;22.89;61.55
45813;BME280;31519;45.408;10.962;2023-08-07T00:44:30;100091.91;;;22.83;61.54
45813;BME280;31519;45.408;10.962;2023-08-07T00:46:59;100089.66;;;22.67;61.95
45813;BME280;31519;45.408;10.962;2023-08-07T00:49:28;100091.13;;;22.82;61.42
45813;BME280;31519;45.408;10.962;2023-08-07T00:51:55;100084.59;;;22.66;61.98
45813;BME280;31519;45.408;10.962;2023-08-07T00:54:24;100085.66;;;22.93;61.58
45813;BME280;31519;45.408;10.962;2023-08-07T00:56:52;100081.34;;;22.99;61.41
45813;BME280;31519;45.408;10.962;2023-08-07T00:59:21;100077.75;;;23.16;60.92
45813;BME280;31519;45.408;10.962;2023-08-07T01:01:50;100075.09;;;23.09;60.70
45813;BME280;31519;45.408;10.962;2023-08-07T01:04:18;100070.06;;;23.04;61.46
45813;BME280;31519;45.408;10.962;2023-08-07T01:06:47;100065.34;;;23.12;61.11
45813;BME280;31519;45.408;10.962;2023-08-07T01:09:15;100069.00;;;23.42;60.15
45813;BME280;31519;45.408;10.962;2023-08-07T01:11:48;100069.66;;;23.09;60.95
45813;BME280;31519;45.408;10.962;2023-08-07T01:17:06;100079.44;;;22.92;62.29
45813;BME280;31519;45.408;10.962;2023-08-07T01:19:36;100077.16;;;22.91;61.63
45813;BME280;31519;45.408;10.962;2023-08-07T01:22:08;100079.50;;;22.85;62.18
45813;BME280;31519;45.408;10.962;2023-08-07T01:24:39;100078.00;;;22.77;62.54
45813;BME280;31519;45.408;10.962;2023-08-07T01:29:38;100082.59;;;22.84;62.12
45813;BME280;31519;45.408;10.962;2023-08-07T01:32:08;100079.84;;;22.91;61.84
45813;BME280;31519;45.408;10.962;2023-08-07T01:34:39;100077.66;;;22.61;63.55
45813;BME280;31519;45.408;10.962;2023-08-07T01:37:09;100076.84;;;22.68;62.87
45813;BME280;31519;45.408;10.962;2023-08-07T01:39:39;100070.63;;;22.74;63.14
45813;BME280;31519;45.408;10.962;2023-08-07T01:42:07;100072.59;;;22.63;63.40
45813;BME280;31519;45.408;10.962;2023-08-07T01:44:36;100074.94;;;22.58;63.52
45813;BME280;31519;45.408;10.962;2023-08-07T01:47:04;100072.69;;;22.42;64.62
45813;BME280;31519;45.408;10.962;2023-08-07T01:49:33;100082.06;;;22.27;65.42
45813;BME280;31519;45.408;10.962;2023-08-07T01:52:00;100076.88;;;22.61;64.24
45813;BME280;31519;45.408;10.962;2023-08-07T01:54:28;100075.69;;;22.72;63.85
45813;BME280;31519;45.408;10.962;2023-08-07T01:56:56;100081.13;;;22.62;64.05
45813;BME280;31519;45.408;10.962;2023-08-07T01:59:25;100090.16;;;22.41;64.97
45813;BME280;31519;45.408;10.962;2023-08-07T02:01:52;100095.97;;;22.32;65.47
45813;BME280;31519;45.408;10.962;2023-08-07T02:04:21;100088.69;;;21.83;67.54
45813;BME280;31519;45.408;10.962;2023-08-07T02:06:49;100096.81;;;21.73;68.59
45813;BME280;31519;45.408;10.962;2023-08-07T02:09:17;100104.59;;;21.53;70.03
45813;BME280;31519;45.408;10.962;2023-08-07T02:11:45;100107.25;;;21.14;72.87
45813;BME280;31519;45.408;10.962;2023-08-07T02:14:13;100106.94;;;20.40;77.50
45813;BME280;31519;45.408;10.962;2023-08-07T02:16:41;100112.13;;;20.69;76.51
45813;BME280;31519;45.408;10.962;2023-08-07T02:19:09;100118.41;;;21.09;74.60
45813;BME280;31519;45.408;10.962;2023-08-07T02:21:38;100113.78;;;21.06;75.13
45813;BME280;31519;45.408;10.962;2023-08-07T02:24:06;100108.41;;;21.13;75.30
45813;BME280;31519;45.408;10.962;2023-08-07T02:26:34;100103.00;;;21.27;74.54
45813;BME280;31519;45.408;10.962;2023-08-07T02:29:02;100102.22;;;21.16;74.68
45813;BME280;31519;45.408;10.962;2023-08-07T02:31:32;100103.75;;;21.13;74.53
45813;BME280;31519;45.408;10.962;2023-08-07T02:34:00;100109.09;;;20.99;75.08
45813;BME280;31519;45.408;10.962;2023-08-07T02:36:30;100103.69;;;20.92;75.50
45813;BME280;31519;45.408;10.962;2023-08-07T02:38:58;100102.94;;;21.06;75.97
45813;BME280;31519;45.408;10.962;2023-08-07T02:41:26;100094.91;;;21.34;73.90
45813;BME280;31519;45.408;10.962;2023-08-07T02:43:54;100104.53;;;21.17;74.56
45813;BME280;31519;45.408;10.962;2023-08-07T02:46:22;100098.34;;;21.31;73.79
45813;BME280;31519;45.408;10.962;2023-08-07T02:48:51;100104.97;;;21.30;73.31
45813;BME280;31519;45.408;10.962;2023-08-07T02:51:18;100107.59;;;21.02;74.94
45813;BME280;31519;45.408;10.962;2023-08-07T02:53:46;100099.94;;;21.21;73.83
45813;BME280;31519;45.408;10.962;2023-08-07T02:56:14;100103.78;;;21.45;73.12
45813;BME280;31519;45.408;10.962;2023-08-07T02:58:42;100095.66;;;21.42;72.71
45813;BME280;31519;45.408;10.962;2023-08-07T03:01:10;100092.59;;;21.40;73.17
45813;BME280;31519;45.408;10.962;2023-08-07T03:03:39;100089.88;;;21.50;72.54
45813;BME280;31519;45.408;10.962;2023-08-07T03:06:07;100086.34;;;21.82;70.72
45813;BME280;31519;45.408;10.962;2023-08-07T03:08:35;100084.44;;;21.64;71.91
45813;BME280;31519;45.408;10.962;2023-08-07T03:11:03;100091.03;;;21.74;70.84
45813;BME280;31519;45.408;10.962;2023-08-07T03:13:31;100087.91;;;21.54;71.61
45813;BME280;31519;45.408;10.962;2023-08-07T03:16:02;100101.50;;;21.72;70.10
45813;BME280;31519;45.408;10.962;2023-08-07T03:18:31;100093.31;;;21.86;66.41
45813;BME280;31519;45.408;10.962;2023-08-07T03:20:59;100102.25;;;21.83;65.36
45813;BME280;31519;45.408;10.962;2023-08-07T03:23:29;100097.63;;;21.77;65.44
45813;BME280;31519;45.408;10.962;2023-08-07T03:26:03;100096.00;;;22.18;64.21
45813;BME280;31519;45.408;10.962;2023-08-07T03:28:45;100082.91;;;21.99;64.77
45813;BME280;31519;45.408;10.962;2023-08-07T03:31:16;100093.72;;;21.85;65.43
45813;BME280;31519;45.408;10.962;2023-08-07T03:33:46;100092.56;;;21.86;65.74
45813;BME280;31519;45.408;10.962;2023-08-07T03:36:16;100097.59;;;21.73;66.54
45813;BME280;31519;45.408;10.962;2023-08-07T03:38:44;100104.97;;;21.55;67.35
45813;BME280;31519;45.408;10.962;2023-08-07T03:41:12;100108.44;;;21.45;68.24
45813;BME280;31519;45.408;10.962;2023-08-07T03:43:41;100110.75;;;21.50;67.91
45813;BME280;31519;45.408;10.962;2023-08-07T03:46:10;100109.22;;;21.52;68.06
45813;BME280;31519;45.408;10.962;2023-08-07T03:48:38;100118.53;;;21.51;67.12
45813;BME280;31519;45.408;10.962;2023-08-07T03:51:07;100119.31;;;21.62;65.86
45813;BME280;31519;45.408;10.962;2023-08-07T03:53:43;100123.19;;;21.58;65.08
45813;BME280;31519;45.408;10.962;2023-08-07T03:56:11;100123.53;;;21.32;64.27
45813;BME280;31519;45.408;10.962;2023-08-07T03:58:39;100124.69;;;21.20;64.63
45813;BME280;31519;45.408;10.962;2023-08-07T04:01:07;100120.34;;;20.98;64.60
45813;BME280;31519;45.408;10.962;2023-08-07T04:03:36;100122.47;;;20.53;65.20
45813;BME280;31519;45.408;10.962;2023-08-07T04:06:05;100127.31;;;21.06;63.44
45813;BME280;31519;45.408;10.962;2023-08-07T04:08:33;100136.63;;;21.12;64.40
45813;BME280;31519;45.408;10.962;2023-08-07T04:11:04;100132.63;;;20.74;66.34
45813;BME280;31519;45.408;10.962;2023-08-07T04:13:34;100130.16;;;20.41;70.14
45813;BME280;31519;45.408;10.962;2023-08-07T04:16:02;100128.97;;;20.34;70.57
45813;BME280;31519;45.408;10.962;2023-08-07T04:18:33;100134.31;;;19.73;74.66
45813;BME280;31519;45.408;10.962;2023-08-07T04:21:02;100137.75;;;19.70;77.90
45813;BME280;31519;45.408;10.962;2023-08-07T04:23:32;100134.28;;;20.27;74.70
45813;BME280;31519;45.408;10.962;2023-08-07T04:26:00;100139.97;;;20.73;74.11
45813;BME280;31519;45.408;10.962;2023-08-07T04:28:28;100134.50;;;20.59;75.62
45813;BME280;31519;45.408;10.962;2023-08-07T04:30:56;100140.69;;;20.67;76.13
45813;BME280;31519;45.408;10.962;2023-08-07T04:33:25;100135.41;;;20.92;73.92
45813;BME280;31519;45.408;10.962;2023-08-07T04:35:53;100132.22;;;20.65;75.28
45813;BME280;31519;45.408;10.962;2023-08-07T04:38:21;100134.63;;;20.95;74.03
45813;BME280;31519;45.408;10.962;2023-08-07T04:40:49;100138.84;;;20.82;75.33
45813;BME280;31519;45.408;10.962;2023-08-07T04:43:18;100130.09;;;21.16;73.79
45813;BME280;31519;45.408;10.962;2023-08-07T04:45:49;100130.78;;;20.99;74.66
45813;BME280;31519;45.408;10.962;2023-08-07T04:48:17;100141.88;;;20.66;75.30
45813;BME280;31519;45.408;10.962;2023-08-07T04:50:45;100145.03;;;20.78;75.39
45813;BME280;31519;45.408;10.962;2023-08-07T04:53:13;100148.09;;;20.77;76.58
45813;BME280;31519;45.408;10.962;2023-08-07T04:55:42;100145.84;;;20.93;75.52
45813;BME280;31519;45.408;10.962;2023-08-07T04:58:10;100146.88;;;20.64;77.16
45813;BME280;31519;45.408;10.962;2023-08-07T05:00:37;100157.47;;;20.94;76.77
45813;BME280;31519;45.408;10.962;2023-08-07T05:03:06;100154.06;;;21.14;75.74
45813;BME280;31519;45.408;10.962;2023-08-07T05:05:34;100162.47;;;20.85;76.47
45813;BME280;31519;45.408;10.962;2023-08-07T05:08:02;100159.69;;;20.70;77.52
45813;BME280;31519;45.408;10.962;2023-08-07T05:10:30;100162.50;;;20.99;76.79
45813;BME280;31519;45.408;10.962;2023-08-07T05:12:58;100167.28;;;21.34;73.95
45813;BME280;31519;45.408;10.962;2023-08-07T05:15:26;100167.28;;;21.34;73.64
45813;BME280;31519;45.408;10.962;2023-08-07T05:17:56;100170.00;;;21.44;72.42
45813;BME280;31519;45.408;10.962;2023-08-07T05:20:24;100175.84;;;21.78;70.21
45813;BME280;31519;45.408;10.962;2023-08-07T05:22:52;100168.50;;;22.07;69.46
45813;BME280;31519;45.408;10.962;2023-08-07T06:19:54;100208.38;;;21.75;62.56
45813;BME280;31519;45.408;10.962;2023-08-07T06:22:22;100213.03;;;21.85;62.78
45813;BME280;31519;45.408;10.962;2023-08-07T06:24:50;100209.13;;;21.61;63.96
45813;BME280;31519;45.408;10.962;2023-08-07T06:27:20;100207.63;;;22.20;61.86
45813;BME280;31519;45.408;10.962;2023-08-07T06:29:48;100205.22;;;22.65;60.23
45813;BME280;31519;45.408;10.962;2023-08-07T06:32:16;100214.19;;;22.54;61.73
45813;BME280;31519;45.408;10.962;2023-08-07T06:34:45;100209.75;;;23.14;59.77
45813;BME280;31519;45.408;10.962;2023-08-07T06:37:14;100217.78;;;23.35;59.00
45813;BME280;31519;45.408;10.962;2023-08-07T06:39:42;100220.81;;;23.55;58.73
45813;BME280;31519;45.408;10.962;2023-08-07T06:42:10;100220.28;;;23.77;57.18
45813;BME280;31519;45.408;10.962;2023-08-07T06:44:41;100218.13;;;23.48;59.05
45813;BME280;31519;45.408;10.962;2023-08-07T06:47:09;100218.03;;;22.68;63.82
45813;BME280;31519;45.408;10.962;2023-08-07T06:49:37;100223.03;;;21.45;71.09
45813;BME280;31519;45.408;10.962;2023-08-07T06:52:06;100220.78;;;22.46;65.98
45813;BME280;31519;45.408;10.962;2023-08-07T06:54:34;100222.25;;;22.93;63.24
45813;BME280;31519;45.408;10.962;2023-08-07T06:57:02;100234.31;;;22.64;62.42
45813;BME280;31519;45.408;10.962;2023-08-07T06:59:30;100235.88;;;21.66;66.04
45813;BME280;31519;45.408;10.962;2023-08-07T07:01:58;100231.53;;;21.40;65.73
45813;BME280;31519;45.408;10.962;2023-08-07T07:04:26;100230.75;;;21.29;65.21
45813;BME280;31519;45.408;10.962;2023-08-07T07:06:56;100239.00;;;21.86;63.21
45813;BME280;31519;45.408;10.962;2023-08-07T07:09:24;100228.16;;;22.14;57.56
45813;BME280;31519;45.408;10.962;2023-08-07T07:11:52;100237.88;;;22.12;57.35
45813;BME280;31519;45.408;10.962;2023-08-07T07:14:20;100233.94;;;22.51;57.01
45813;BME280;31519;45.408;10.962;2023-08-07T07:16:49;100243.63;;;22.56;57.70
45813;BME280;31519;45.408;10.962;2023-08-07T07:19:17;100242.34;;;23.14;56.17
45813;BME280;31519;45.408;10.962;2023-08-07T07:21:46;100247.59;;;23.56;53.91
45813;BME280;31519;45.408;10.962;2023-08-07T07:24:14;100242.25;;;23.35;52.07
45813;BME280;31519;45.408;10.962;2023-08-07T07:26:42;100243.69;;;23.57;50.55
45813;BME280;31519;45.408;10.962;2023-08-07T07:29:10;100238.25;;;24.12;48.36
45813;BME280;31519;45.408;10.962;2023-08-07T07:31:38;100239.50;;;24.90;43.83
45813;BME280;31519;45.408;10.962;2023-08-07T07:34:06;100241.16;;;24.39;37.22
45813;BME280;31519;45.408;10.962;2023-08-07T07:36:34;100250.59;;;23.72;40.10
45813;BME280;31519;45.408;10.962;2023-08-07T07:39:02;100247.59;;;23.56;39.88
45813;BME280;31519;45.408;10.962;2023-08-07T07:41:30;100253.88;;;23.46;40.99
45813;BME280;31519;45.408;10.962;2023-08-07T07:43:58;100256.41;;;22.91;42.78
45813;BME280;31519;45.408;10.962;2023-08-07T07:46:27;100255.91;;;23.17;42.86
45813;BME280;31519;45.408;10.962;2023-08-07T07:48:55;100262.19;;;23.00;41.93
45813;BME280;31519;45.408;10.962;2023-08-07T07:51:25;100272.75;;;22.77;41.56
45813;BME280;31519;45.408;10.962;2023-08-07T07:53:52;100265.31;;;22.91;40.66
45813;BME280;31519;45.408;10.962;2023-08-07T07:56:41;100273.47;;;22.88;40.66
45813;BME280;31519;45.408;10.962;2023-08-07T07:59:09;100263.78;;;22.90;39.93
45813;BME280;31519;45.408;10.962;2023-08-07T08:01:37;100261.72;;;23.19;39.95
45813;BME280;31519;45.408;10.962;2023-08-07T08:04:05;100262.72;;;23.64;39.02
45813;BME280;31519;45.408;10.962;2023-08-07T08:06:34;100261.78;;;23.85;36.46
45813;BME280;31519;45.408;10.962;2023-08-07T08:09:02;100266.00;;;23.93;35.91
45813;BME280;31519;45.408;10.962;2023-08-07T08:11:32;100256.91;;;24.14;34.66
45813;BME280;31519;45.408;10.962;2023-08-07T08:14:00;100262.88;;;24.46;34.67
45813;BME280;31519;45.408;10.962;2023-08-07T08:16:28;100264.69;;;24.60;34.83
45813;BME280;31519;45.408;10.962;2023-08-07T08:18:56;100267.09;;;24.54;35.63
45813;BME280;31519;45.408;10.962;2023-08-07T08:21:24;100275.03;;;24.76;36.80
45813;BME280;31519;45.408;10.962;2023-08-07T08:23:52;100266.25;;;24.98;36.65
45813;BME280;31519;45.408;10.962;2023-08-07T08:26:20;100268.00;;;24.78;37.11
45813;BME280;31519;45.408;10.962;2023-08-07T08:28:48;100271.09;;;25.17;36.39
45813;BME280;31519;45.408;10.962;2023-08-07T08:31:16;100278.69;;;25.33;32.23
45813;BME280;31519;45.408;10.962;2023-08-07T08:33:44;100278.47;;;25.51;30.68
45813;BME280;31519;45.408;10.962;2023-08-07T08:36:12;100288.03;;;25.93;30.86
45813;BME280;31519;45.408;10.962;2023-08-07T08:38:40;100285.38;;;26.39;30.85
45813;BME280;31519;45.408;10.962;2023-08-07T08:41:09;100281.72;;;26.46;29.92
45813;BME280;31519;45.408;10.962;2023-08-07T08:43:37;100282.09;;;26.48;29.35
45813;BME280;31519;45.408;10.962;2023-08-07T08:46:06;100288.03;;;26.43;28.77
45813;BME280;31519;45.408;10.962;2023-08-07T08:48:39;100279.22;;;25.55;30.14
45813;BME280;31519;45.408;10.962;2023-08-07T08:51:09;100284.72;;;25.78;30.38
45813;BME280;31519;45.408;10.962;2023-08-07T08:53:39;100277.81;;;25.97;31.80
45813;BME280;31519;45.408;10.962;2023-08-07T08:56:07;100289.16;;;26.22;30.67
45813;BME280;31519;45.408;10.962;2023-08-07T08:58:35;100288.56;;;26.77;30.72
45813;BME280;31519;45.408;10.962;2023-08-07T09:01:04;100290.59;;;26.30;28.72
45813;BME280;31519;45.408;10.962;2023-08-07T09:03:32;100292.56;;;26.30;28.73
45813;BME280;31519;45.408;10.962;2023-08-07T09:06:00;100291.03;;;26.72;29.18
45813;BME280;31519;45.408;10.962;2023-08-07T09:08:28;100294.88;;;27.17;28.23
45813;BME280;31519;45.408;10.962;2023-08-07T09:10:58;100295.44;;;27.48;27.24
45813;BME280;31519;45.408;10.962;2023-08-07T09:13:26;100293.88;;;26.65;27.37
45813;BME280;31519;45.408;10.962;2023-08-07T09:15:56;100294.44;;;27.19;27.26
45813;BME280;31519;45.408;10.962;2023-08-07T09:18:25;100303.25;;;27.46;26.99
45813;BME280;31519;45.408;10.962;2023-08-07T09:20:54;100305.09;;;27.33;26.84
45813;BME280;31519;45.408;10.962;2023-08-07T09:23:22;100298.22;;;27.25;27.58
45813;BME280;31519;45.408;10.962;2023-08-07T09:25:58;100301.88;;;27.38;28.29
45813;BME280;31519;45.408;10.962;2023-08-07T09:28:26;100302.53;;;27.82;28.23
45813;BME280;31519;45.408;10.962;2023-08-07T09:30:56;100293.47;;;27.29;28.53
45813;BME280;31519;45.408;10.962;2023-08-07T09:33:27;100295.50;;;27.05;28.29
45813;BME280;31519;45.408;10.962;2023-08-07T09:35:59;100303.22;;;27.86;28.09
45813;BME280;31519;45.408;10.962;2023-08-07T09:38:31;100307.13;;;27.85;28.18
45813;BME280;31519;45.408;10.962;2023-08-07T09:41:02;100307.41;;;26.95;28.18
45813;BME280;31519;45.408;10.962;2023-08-07T09:43:36;100303.97;;;27.50;28.18
45813;BME280;31519;45.408;10.962;2023-08-07T09:46:05;100311.13;;;27.44;26.84
45813;BME280;31519;45.408;10.962;2023-08-07T09:48:40;100304.63;;;28.26;26.04
45813;BME280;31519;45.408;10.962;2023-08-07T09:51:09;100306.94;;;28.89;26.34
45813;BME280;31519;45.408;10.962;2023-08-07T09:53:37;100304.28;;;29.14;26.19
45813;BME280;31519;45.408;10.962;2023-08-07T09:56:05;100301.81;;;28.13;25.85
45813;BME280;31519;45.408;10.962;2023-08-07T09:58:33;100307.00;;;28.24;26.54
45813;BME280;31519;45.408;10.962;2023-08-07T10:01:04;100312.94;;;28.23;26.41
45813;BME280;31519;45.408;10.962;2023-08-07T10:03:33;100309.47;;;27.86;26.53
45813;BME280;31519;45.408;10.962;2023-08-07T10:06:02;100306.56;;;28.42;26.93
45813;BME280;31519;45.408;10.962;2023-08-07T10:08:29;100305.41;;;28.27;26.53
45813;BME280;31519;45.408;10.962;2023-08-07T10:10:58;100295.94;;;29.05;25.52
45813;BME280;31519;45.408;10.962;2023-08-07T10:13:27;100307.66;;;28.60;26.20
45813;BME280;31519;45.408;10.962;2023-08-07T10:16:00;100304.72;;;28.84;25.85
45813;BME280;31519;45.408;10.962;2023-08-07T10:18:28;100306.81;;;27.99;27.01
45813;BME280;31519;45.408;10.962;2023-08-07T10:20:57;100299.38;;;28.48;27.07
45813;BME280;31519;45.408;10.962;2023-08-07T10:23:25;100299.09;;;28.75;26.68
45813;BME280;31519;45.408;10.962;2023-08-07T10:25:53;100299.97;;;29.00;26.55
45813;BME280;31519;45.408;10.962;2023-08-07T10:28:21;100294.97;;;29.24;25.39
45813;BME280;31519;45.408;10.962;2023-08-07T10:30:55;100293.97;;;29.85;25.90
45813;BME280;31519;45.408;10.962;2023-08-07T10:33:24;100296.13;;;30.28;25.95
45813;BME280;31519;45.408;10.962;2023-08-07T10:35:52;100294.03;;;29.43;25.39
45813;BME280;31519;45.408;10.962;2023-08-07T10:38:22;100294.69;;;29.06;25.78
45813;BME280;31519;45.408;10.962;2023-08-07T10:43:30;100305.63;;;28.00;22.29
45813;BME280;31519;45.408;10.962;2023-08-07T10:46:02;100307.81;;;27.72;22.61
45813;BME280;31519;45.408;10.962;2023-08-07T10:48:31;100306.38;;;28.81;22.13
45813;BME280;31519;45.408;10.962;2023-08-07T10:51:05;100305.25;;;29.07;22.22
45813;BME280;31519;45.408;10.962;2023-08-07T10:53:37;100302.44;;;29.65;23.35
45813;BME280;31519;45.408;10.962;2023-08-07T10:56:09;100302.03;;;30.39;23.28
45813;BME280;31519;45.408;10.962;2023-08-07T10:58:38;100301.78;;;30.59;22.55
45813;BME280;31519;45.408;10.962;2023-08-07T11:03:44;100293.53;;;29.99;24.36
45813;BME280;31519;45.408;10.962;2023-08-07T11:06:12;100294.94;;;29.12;23.91
45813;BME280;31519;45.408;10.962;2023-08-07T11:08:40;100293.91;;;29.34;23.02
45813;BME280;31519;45.408;10.962;2023-08-07T11:11:08;100289.25;;;28.77;22.65
45813;BME280;31519;45.408;10.962;2023-08-07T11:13:36;100286.50;;;28.77;22.18
45813;BME280;31519;45.408;10.962;2023-08-07T11:16:04;100289.81;;;29.26;21.37
45813;BME280;31519;45.408;10.962;2023-08-07T11:18:32;100281.25;;;29.24;21.90
45813;BME280;31519;45.408;10.962;2023-08-07T11:21:03;100282.88;;;29.09;22.51
45813;BME280;31519;45.408;10.962;2023-08-07T11:23:31;100281.84;;;29.32;22.22
45813;BME280;31519;45.408;10.962;2023-08-07T11:25:59;100275.94;;;29.71;22.12
45813;BME280;31519;45.408;10.962;2023-08-07T11:28:27;100281.84;;;29.32;22.55
45813;BME280;31519;45.408;10.962;2023-08-07T11:30:56;100281.63;;;28.97;21.87
45813;BME280;31519;45.408;10.962;2023-08-07T11:33:24;100275.56;;;29.19;22.47
45813;BME280;31519;45.408;10.962;2023-08-07T11:35:53;100271.34;;;29.81;21.55
45813;BME280;31519;45.408;10.962;2023-08-07T11:38:30;100272.69;;;30.36;21.04
45813;BME280;31519;45.408;10.962;2023-08-07T11:41:02;100275.75;;;29.24;21.36
45813;BME280;31519;45.408;10.962;2023-08-07T11:43:31;100269.69;;;29.71;21.84
45813;BME280;31519;45.408;10.962;2023-08-07T11:46:01;100267.09;;;30.96;20.92
45813;BME280;31519;45.408;10.962;2023-08-07T11:48:29;100268.81;;;30.59;21.03
45813;BME280;31519;45.408;10.962;2023-08-07T11:50:58;100277.72;;;29.78;19.88
45813;BME280;31519;45.408;10.962;2023-08-07T11:53:27;100278.56;;;30.13;20.05
45813;BME280;31519;45.408;10.962;2023-08-07T11:55:59;100280.53;;;29.36;20.52
45813;BME280;31519;45.408;10.962;2023-08-07T11:58:27;100272.88;;;29.69;19.59
45813;BME280;31519;45.408;10.962;2023-08-07T12:00:56;100286.28;;;30.05;19.99
45813;BME280;31519;45.408;10.962;2023-08-07T12:03:42;100280.69;;;31.12;18.25
45813;BME280;31519;45.408;10.962;2023-08-07T12:06:11;100289.06;;;30.39;18.80
45813;BME280;31519;45.408;10.962;2023-08-07T12:08:39;100281.63;;;29.51;19.20
45813;BME280;31519;45.408;10.962;2023-08-07T12:11:09;100291.34;;;29.94;18.62
45813;BME280;31519;45.408;10.962;2023-08-07T12:13:46;100290.63;;;29.39;18.55
45813;BME280;31519;45.408;10.962;2023-08-07T12:16:15;100291.53;;;29.49;18.85
45813;BME280;31519;45.408;10.962;2023-08-07T12:18:43;100293.31;;;29.56;18.01
45813;BME280;31519;45.408;10.962;2023-08-07T12:21:16;100288.47;;;30.10;18.25
45813;BME280;31519;45.408;10.962;2023-08-07T12:23:44;100289.28;;;30.79;17.21
45813;BME280;31519;45.408;10.962;2023-08-07T12:26:15;100291.97;;;30.92;17.47
45813;BME280;31519;45.408;10.962;2023-08-07T12:28:43;100296.22;;;30.50;17.38
45813;BME280;31519;45.408;10.962;2023-08-07T12:31:11;100297.16;;;30.90;17.87
45813;BME280;31519;45.408;10.962;2023-08-07T12:33:39;100290.72;;;30.50;18.56
45813;BME280;31519;45.408;10.962;2023-08-07T12:36:07;100284.94;;;30.69;18.64
45813;BME280;31519;45.408;10.962;2023-08-07T12:38:38;100284.13;;;30.47;18.19
45813;BME280;31519;45.408;10.962;2023-08-07T12:41:06;100280.06;;;31.70;17.95
45813;BME280;31519;45.408;10.962;2023-08-07T12:43:54;100285.84;;;32.02;16.69
45813;BME280;31519;45.408;10.962;2023-08-07T12:46:22;100284.75;;;32.00;16.73
45813;BME280;31519;45.408;10.962;2023-08-07T12:48:53;100288.69;;;30.85;18.76
45813;BME280;31519;45.408;10.962;2023-08-07T12:51:21;100281.91;;;32.13;18.22
45813;BME280;31519;45.408;10.962;2023-08-07T12:53:49;100277.06;;;32.80;17.79
45813;BME280;31519;45.408;10.962;2023-08-07T12:56:19;100271.97;;;33.06;18.16
45813;BME280;31519;45.408;10.962;2023-08-07T12:58:47;100288.94;;;31.12;19.63
45813;BME280;31519;45.408;10.962;2023-08-07T13:01:15;100278.16;;;31.27;19.50
45813;BME280;31519;45.408;10.962;2023-08-07T13:03:43;100274.66;;;32.06;18.90
45813;BME280;31519;45.408;10.962;2023-08-07T13:06:11;100278.03;;;31.08;20.37
45813;BME280;31519;45.408;10.962;2023-08-07T13:08:39;100275.56;;;30.32;20.81
45813;BME280;31519;45.408;10.962;2023-08-07T13:11:08;100285.38;;;30.21;20.66
45813;BME280;31519;45.408;10.962;2023-08-07T13:13:36;100277.06;;;30.80;19.91
45813;BME280;31519;45.408;10.962;2023-08-07T13:16:06;100285.41;;;29.96;20.40
45813;BME280;31519;45.408;10.962;2023-08-07T13:18:34;100282.81;;;30.73;20.94
45813;BME280;31519;45.408;10.962;2023-08-07T13:21:02;100288.19;;;31.42;19.75
45813;BME280;31519;45.408;10.962;2023-08-07T13:23:30;100296.78;;;31.22;19.53
45813;BME280;31519;45.408;10.962;2023-08-07T13:25:58;100287.47;;;31.91;19.42
45813;BME280;31519;45.408;10.962;2023-08-07T13:28:26;100291.06;;;30.95;20.37
45813;BME280;31519;45.408;10.962;2023-08-07T13:30:54;100298.66;;;31.26;20.15
45813;BME280;31519;45.408;10.962;2023-08-07T13:33:23;100304.91;;;30.48;20.53
45813;BME280;31519;45.408;10.962;2023-08-07T13:35:51;100291.09;;;31.70;19.59
45813;BME280;31519;45.408;10.962;2023-08-07T13:38:19;100288.31;;;32.09;18.65
45813;BME280;31519;45.408;10.962;2023-08-07T13:40:48;100291.75;;;31.21;19.70
45813;BME280;31519;45.408;10.962;2023-08-07T13:43:16;100297.25;;;31.52;19.23
45813;BME280;31519;45.408;10.962;2023-08-07T13:45:44;100286.53;;;32.34;18.37
45813;BME280;31519;45.408;10.962;2023-08-07T13:48:12;100288.53;;;33.06;17.88
45813;BME280;31519;45.408;10.962;2023-08-07T13:50:40;100287.59;;;33.00;17.88
45813;BME280;31519;45.408;10.962;2023-08-07T13:53:08;100295.16;;;31.56;18.83
45813;BME280;31519;45.408;10.962;2023-08-07T13:55:43;100280.88;;;32.55;18.39